sensor_id;sensor_type;location;lat;lon;timestamp;pressure;altitude;pressure_sealevel;temperature;humidity
44349;BME280;30068;50.986;4.564;2022-12-18T00:01:29;102784.78;;;11.43;54.57
44349;BME280;30068;50.986;4.564;2022-12-18T00:03:56;102783.78;;;11.45;54.41
44349;BME280;30068;50.986;4.564;2022-12-18T00:06:24;102793.69;;;11.43;54.37
44349;BME280;30068;50.986;4.564;2022-12-18T00:08:50;102786.00;;;11.37;54.72
44349;BME280;30068;50.986;4.564;2022-12-18T00:11:21;102782.78;;;11.31;54.87
44349;BME280;30068;50.986;4.564;2022-12-18T00:13:48;102787.75;;;11.21;55.04
44349;BME280;30068;50.986;4.564;2022-12-18T00:16:16;102780.06;;;11.15;55.19
44349;BME280;30068;50.986;4.564;2022-12-18T00:18:43;102769.97;;;11.37;54.80
44349;BME280;30068;50.986;4.564;2022-12-18T00:21:10;102769.44;;;11.31;54.61
44349;BME280;30068;50.986;4.564;2022-12-18T00:23:37;102781.34;;;11.41;54.49
44349;BME280;30068;50.986;4.564;2022-12-18T00:26:06;102778.91;;;11.36;54.50
44349;BME280;30068;50.986;4.564;2022-12-18T00:28:32;102766.44;;;11.37;54.06
44349;BME280;30068;50.986;4.564;2022-12-18T00:31:06;102756.16;;;11.29;54.10
44349;BME280;30068;50.986;4.564;2022-12-18T00:33:32;102757.88;;;11.30;54.48
44349;BME280;30068;50.986;4.564;2022-12-18T00:36:15;102764.22;;;11.12;55.30
44349;BME280;30068;50.986;4.564;2022-12-18T00:38:42;102756.50;;;11.23;54.81
44349;BME280;30068;50.986;4.564;2022-12-18T00:41:08;102748.88;;;11.16;54.93
44349;BME280;30068;50.986;4.564;2022-12-18T00:43:35;102737.38;;;11.31;54.08
44349;BME280;30068;50.986;4.564;2022-12-18T00:46:00;102751.28;;;11.20;54.57
44349;BME280;30068;50.986;4.564;2022-12-18T00:48:27;102747.69;;;11.21;54.74
44349;BME280;30068;50.986;4.564;2022-12-18T00:50:52;102742.69;;;11.15;54.40
44349;BME280;30068;50.986;4.564;2022-12-18T00:53:18;102745.34;;;11.15;54.73
44349;BME280;30068;50.986;4.564;2022-12-18T00:55:44;102744.47;;;11.15;54.75
44349;BME280;30068;50.986;4.564;2022-12-18T00:58:11;102738.88;;;11.19;54.61
44349;BME280;30068;50.986;4.564;2022-12-18T01:00:37;102738.34;;;11.13;54.59
44349;BME280;30068;50.986;4.564;2022-12-18T01:03:03;102747.69;;;11.21;54.29
44349;BME280;30068;50.986;4.564;2022-12-18T01:05:29;102747.16;;;11.15;54.86
44349;BME280;30068;50.986;4.564;2022-12-18T01:07:55;102742.84;;;11.12;54.52
44349;BME280;30068;50.986;4.564;2022-12-18T01:10:21;102736.88;;;11.07;54.84
44349;BME280;30068;50.986;4.564;2022-12-18T01:12:46;102735.06;;;11.07;54.57
44349;BME280;30068;50.986;4.564;2022-12-18T01:15:12;102734.22;;;11.07;54.60
44349;BME280;30068;50.986;4.564;2022-12-18T01:17:38;102744.75;;;11.10;54.32
44349;BME280;30068;50.986;4.564;2022-12-18T01:20:04;102749.75;;;11.16;54.11
44349;BME280;30068;50.986;4.564;2022-12-18T01:22:29;102734.38;;;11.04;54.45
44349;BME280;30068;50.986;4.564;2022-12-18T01:24:54;102739.53;;;11.07;54.79
44349;BME280;30068;50.986;4.564;2022-12-18T01:27:20;102744.22;;;11.19;53.88
44349;BME280;30068;50.986;4.564;2022-12-18T01:29:45;102749.41;;;11.22;53.86
44349;BME280;30068;50.986;4.564;2022-12-18T01:32:10;102746.47;;;11.27;54.04
44349;BME280;30068;50.986;4.564;2022-12-18T01:34:36;102748.72;;;11.19;53.97
44349;BME280;30068;50.986;4.564;2022-12-18T01:37:03;102745.09;;;11.20;53.94
44349;BME280;30068;50.986;4.564;2022-12-18T01:39:29;102730.44;;;11.27;54.01
44349;BME280;30068;50.986;4.564;2022-12-18T01:41:54;102734.28;;;11.38;53.73
44349;BME280;30068;50.986;4.564;2022-12-18T01:47:30;102745.81;;;11.23;53.91
44349;BME280;30068;50.986;4.564;2022-12-18T01:49:58;102737.38;;;11.31;54.05
44349;BME280;30068;50.986;4.564;2022-12-18T01:52:26;102740.78;;;11.17;54.09
44349;BME280;30068;50.986;4.564;2022-12-18T01:54:54;102742.41;;;11.20;54.40
44349;BME280;30068;50.986;4.564;2022-12-18T01:57:20;102748.72;;;11.19;54.54
44349;BME280;30068;50.986;4.564;2022-12-18T01:59:49;102753.41;;;11.31;53.78
44349;BME280;30068;50.986;4.564;2022-12-18T02:02:16;102757.50;;;11.05;54.84
44349;BME280;30068;50.986;4.564;2022-12-18T02:04:42;102754.91;;;11.19;54.10
44349;BME280;30068;50.986;4.564;2022-12-18T02:07:57;102760.69;;;11.12;54.72
44349;BME280;30068;50.986;4.564;2022-12-18T02:10:03;102757.16;;;11.11;54.59
44349;BME280;30068;50.986;4.564;2022-12-18T02:12:53;102759.03;;;11.09;54.35
44349;BME280;30068;50.986;4.564;2022-12-18T02:18:33;102745.28;;;11.17;54.02
44349;BME280;30068;50.986;4.564;2022-12-18T02:21:14;102751.09;;;11.07;54.58
44349;BME280;30068;50.986;4.564;2022-12-18T02:23:53;102743.81;;;11.11;54.51
44349;BME280;30068;50.986;4.564;2022-12-18T02:26:33;102735.00;;;11.09;54.35
44349;BME280;30068;50.986;4.564;2022-12-18T02:29:04;102726.72;;;11.14;54.01
44349;BME280;30068;50.986;4.564;2022-12-18T02:31:40;102720.50;;;11.13;54.34
44349;BME280;30068;50.986;4.564;2022-12-18T02:34:09;102709.72;;;10.99;54.58
44349;BME280;30068;50.986;4.564;2022-12-18T02:36:36;102702.53;;;11.17;54.03
44349;BME280;30068;50.986;4.564;2022-12-18T02:39:05;102698.38;;;11.11;54.35
44349;BME280;30068;50.986;4.564;2022-12-18T02:41:32;102699.00;;;11.16;53.80
44349;BME280;30068;50.986;4.564;2022-12-18T02:44:01;102693.53;;;11.02;54.00
44349;BME280;30068;50.986;4.564;2022-12-18T02:49:49;102711.44;;;11.00;54.01
44349;BME280;30068;50.986;4.564;2022-12-18T02:56:55;102703.94;;;11.06;54.23
44349;BME280;30068;50.986;4.564;2022-12-18T02:59:31;102710.34;;;11.04;53.56
44349;BME280;30068;50.986;4.564;2022-12-18T03:02:24;102704.38;;;10.99;53.71
44349;BME280;30068;50.986;4.564;2022-12-18T03:05:14;102707.56;;;10.90;54.44
44349;BME280;30068;50.986;4.564;2022-12-18T03:07:47;102703.94;;;11.06;53.42
44349;BME280;30068;50.986;4.564;2022-12-18T03:10:17;102701.97;;;10.94;54.15
44349;BME280;30068;50.986;4.564;2022-12-18T03:12:52;102694.34;;;10.87;54.30
44349;BME280;30068;50.986;4.564;2022-12-18T03:15:22;102691.00;;;10.99;53.92
44349;BME280;30068;50.986;4.564;2022-12-18T03:17:57;102683.88;;;10.99;53.49
44349;BME280;30068;50.986;4.564;2022-12-18T03:20:25;102689.72;;;10.90;53.67
44349;BME280;30068;50.986;4.564;2022-12-18T03:22:57;102689.94;;;10.86;53.91
44349;BME280;30068;50.986;4.564;2022-12-18T03:25:25;102676.59;;;10.86;54.37
44349;BME280;30068;50.986;4.564;2022-12-18T03:27:56;102668.44;;;10.89;54.15
44349;BME280;30068;50.986;4.564;2022-12-18T03:30:23;102672.31;;;10.83;54.33
44349;BME280;30068;50.986;4.564;2022-12-18T03:33:12;102666.09;;;10.83;54.05
44349;BME280;30068;50.986;4.564;2022-12-18T03:35:42;102679.28;;;10.86;53.95
44349;BME280;30068;50.986;4.564;2022-12-18T03:38:09;102692.19;;;10.78;54.30
44349;BME280;30068;50.986;4.564;2022-12-18T03:40:53;102693.59;;;10.85;54.00
44349;BME280;30068;50.986;4.564;2022-12-18T03:43:34;102689.81;;;10.89;54.25
44349;BME280;30068;50.986;4.564;2022-12-18T03:46:07;102684.34;;;10.75;54.26
44349;BME280;30068;50.986;4.564;2022-12-18T03:48:38;102678.94;;;10.92;54.01
44349;BME280;30068;50.986;4.564;2022-12-18T03:51:18;102686.22;;;10.73;54.11
44349;BME280;30068;50.986;4.564;2022-12-18T03:56:16;102688.28;;;10.67;54.66
44349;BME280;30068;50.986;4.564;2022-12-18T03:58:43;102684.00;;;10.81;54.41
44349;BME280;30068;50.986;4.564;2022-12-18T04:01:13;102682.47;;;10.77;54.11
44349;BME280;30068;50.986;4.564;2022-12-18T04:03:41;102677.53;;;10.69;54.21
44349;BME280;30068;50.986;4.564;2022-12-18T04:06:07;102671.06;;;10.73;54.35
44349;BME280;30068;50.986;4.564;2022-12-18T04:08:34;102662.97;;;10.75;54.00
44349;BME280;30068;50.986;4.564;2022-12-18T04:11:00;102662.44;;;10.68;54.10
44349;BME280;30068;50.986;4.564;2022-12-18T04:13:32;102663.31;;;10.68;54.51
44349;BME280;30068;50.986;4.564;2022-12-18T04:15:58;102663.91;;;10.74;54.18
44349;BME280;30068;50.986;4.564;2022-12-18T04:18:23;102670.00;;;10.60;54.72
44349;BME280;30068;50.986;4.564;2022-12-18T04:20:48;102663.09;;;10.56;54.40
44349;BME280;30068;50.986;4.564;2022-12-18T04:23:14;102665.31;;;10.48;54.24
44349;BME280;30068;50.986;4.564;2022-12-18T04:25:39;102673.25;;;10.49;54.50
44349;BME280;30068;50.986;4.564;2022-12-18T04:28:04;102671.44;;;10.50;54.23
44349;BME280;30068;50.986;4.564;2022-12-18T04:30:30;102669.09;;;10.44;54.46
44349;BME280;30068;50.986;4.564;2022-12-18T04:32:55;102671.50;;;10.48;54.27
44349;BME280;30068;50.986;4.564;2022-12-18T04:35:21;102665.31;;;10.48;54.08
44349;BME280;30068;50.986;4.564;2022-12-18T04:37:46;102672.91;;;10.55;53.91
44349;BME280;30068;50.986;4.564;2022-12-18T04:40:12;102668.22;;;10.43;53.89
44349;BME280;30068;50.986;4.564;2022-12-18T04:42:39;102677.72;;;10.32;54.30
44349;BME280;30068;50.986;4.564;2022-12-18T04:45:04;102676.13;;;10.45;54.08
44349;BME280;30068;50.986;4.564;2022-12-18T04:47:30;102675.91;;;10.49;53.92
44349;BME280;30068;50.986;4.564;2022-12-18T04:49:55;102673.56;;;10.43;53.36
44349;BME280;30068;50.986;4.564;2022-12-18T04:52:21;102684.94;;;10.47;53.39
44349;BME280;30068;50.986;4.564;2022-12-18T04:54:46;102680.31;;;10.50;53.45
44349;BME280;30068;50.986;4.564;2022-12-18T04:57:11;102688.22;;;10.52;53.57
44349;BME280;30068;50.986;4.564;2022-12-18T04:59:37;102688.00;;;10.39;53.59
44349;BME280;30068;50.986;4.564;2022-12-18T05:02:02;102691.84;;;10.34;53.71
44349;BME280;30068;50.986;4.564;2022-12-18T05:04:27;102689.97;;;10.36;53.92
44349;BME280;30068;50.986;4.564;2022-12-18T05:06:53;102686.97;;;10.42;53.61
44349;BME280;30068;50.986;4.564;2022-12-18T05:09:18;102679.53;;;10.31;53.87
44349;BME280;30068;50.986;4.564;2022-12-18T05:11:43;102668.69;;;10.34;53.67
44349;BME280;30068;50.986;4.564;2022-12-18T05:14:09;102669.56;;;10.35;53.94
44349;BME280;30068;50.986;4.564;2022-12-18T05:16:34;102668.78;;;10.50;53.10
44349;BME280;30068;50.986;4.564;2022-12-18T05:18:59;102669.94;;;10.44;53.30
44349;BME280;30068;50.986;4.564;2022-12-18T05:21:25;102681.56;;;10.43;53.63
44349;BME280;30068;50.986;4.564;2022-12-18T05:23:50;102678.19;;;10.40;53.38
44349;BME280;30068;50.986;4.564;2022-12-18T05:26:17;102666.09;;;10.33;53.73
44349;BME280;30068;50.986;4.564;2022-12-18T05:28:43;102671.63;;;10.29;53.87
44349;BME280;30068;50.986;4.564;2022-12-18T05:31:09;102659.03;;;10.32;53.53
44349;BME280;30068;50.986;4.564;2022-12-18T05:33:35;102673.56;;;10.43;53.09
44349;BME280;30068;50.986;4.564;2022-12-18T05:36:01;102674.34;;;10.28;53.77
44349;BME280;30068;50.986;4.564;2022-12-18T05:38:28;102663.38;;;10.34;53.38
44349;BME280;30068;50.986;4.564;2022-12-18T05:40:54;102664.16;;;10.36;53.55
44349;BME280;30068;50.986;4.564;2022-12-18T05:43:20;102658.59;;;10.23;53.96
44349;BME280;30068;50.986;4.564;2022-12-18T05:45:50;102657.31;;;10.30;53.60
44349;BME280;30068;50.986;4.564;2022-12-18T05:48:16;102661.47;;;10.19;53.93
44349;BME280;30068;50.986;4.564;2022-12-18T05:50:43;102664.16;;;10.19;53.91
44349;BME280;30068;50.986;4.564;2022-12-18T05:53:14;102664.69;;;10.25;53.70
44349;BME280;30068;50.986;4.564;2022-12-18T05:55:40;102660.69;;;10.34;53.71
44349;BME280;30068;50.986;4.564;2022-12-18T05:58:07;102663.06;;;10.23;54.01
44349;BME280;30068;50.986;4.564;2022-12-18T06:00:39;102662.88;;;10.09;54.33
44349;BME280;30068;50.986;4.564;2022-12-18T06:03:09;102663.44;;;10.15;54.02
44349;BME280;30068;50.986;4.564;2022-12-18T06:05:36;102659.81;;;10.16;53.91
44349;BME280;30068;50.986;4.564;2022-12-18T06:08:02;102656.75;;;10.24;53.87
44349;BME280;30068;50.986;4.564;2022-12-18T06:10:27;102664.69;;;10.08;54.06
44349;BME280;30068;50.986;4.564;2022-12-18T06:12:53;102670.63;;;10.13;54.18
44349;BME280;30068;50.986;4.564;2022-12-18T06:15:18;102663.03;;;10.06;54.08
44349;BME280;30068;50.986;4.564;2022-12-18T06:17:43;102664.28;;;10.16;53.71
44349;BME280;30068;50.986;4.564;2022-12-18T06:20:09;102662.28;;;10.21;53.50
44349;BME280;30068;50.986;4.564;2022-12-18T06:22:34;102651.16;;;10.11;53.77
44349;BME280;30068;50.986;4.564;2022-12-18T06:25:00;102645.69;;;10.14;54.06
44349;BME280;30068;50.986;4.564;2022-12-18T06:27:25;102647.50;;;10.14;53.78
44349;BME280;30068;50.986;4.564;2022-12-18T06:29:50;102636.53;;;10.03;54.10
44349;BME280;30068;50.986;4.564;2022-12-18T06:32:16;102630.69;;;10.12;53.46
44349;BME280;30068;50.986;4.564;2022-12-18T06:34:41;102641.88;;;10.20;54.04
44349;BME280;30068;50.986;4.564;2022-12-18T06:37:07;102653.75;;;10.13;53.57
44349;BME280;30068;50.986;4.564;2022-12-18T06:39:32;102652.22;;;10.09;53.73
44349;BME280;30068;50.986;4.564;2022-12-18T06:41:57;102652.66;;;10.00;54.17
44349;BME280;30068;50.986;4.564;2022-12-18T06:44:23;102660.22;;;10.09;54.19
44349;BME280;30068;50.986;4.564;2022-12-18T06:46:48;102644.22;;;10.09;54.12
44349;BME280;30068;50.986;4.564;2022-12-18T06:49:13;102631.00;;;10.06;54.17
44349;BME280;30068;50.986;4.564;2022-12-18T06:51:39;102620.97;;;10.11;53.81
44349;BME280;30068;50.986;4.564;2022-12-18T06:54:04;102638.53;;;9.98;54.43
44349;BME280;30068;50.986;4.564;2022-12-18T06:56:30;102633.38;;;9.95;54.44
44349;BME280;30068;50.986;4.564;2022-12-18T06:58:55;102626.94;;;9.99;54.62
44349;BME280;30068;50.986;4.564;2022-12-18T07:01:22;102636.25;;;9.90;54.16
44349;BME280;30068;50.986;4.564;2022-12-18T07:03:52;102629.91;;;9.93;54.45
44349;BME280;30068;50.986;4.564;2022-12-18T07:06:19;102609.38;;;9.95;54.34
44349;BME280;30068;50.986;4.564;2022-12-18T07:08:46;102601.22;;;9.98;54.11
44349;BME280;30068;50.986;4.564;2022-12-18T07:11:12;102597.06;;;9.92;54.63
44349;BME280;30068;50.986;4.564;2022-12-18T07:13:38;102592.34;;;9.97;54.12
44349;BME280;30068;50.986;4.564;2022-12-18T07:16:12;102592.75;;;9.89;54.25
44349;BME280;30068;50.986;4.564;2022-12-18T07:18:38;102585.53;;;9.91;54.52
44349;BME280;30068;50.986;4.564;2022-12-18T07:21:07;102576.75;;;9.89;54.55
44349;BME280;30068;50.986;4.564;2022-12-18T07:23:34;102570.78;;;9.84;54.54
44349;BME280;30068;50.986;4.564;2022-12-18T07:26:08;102579.59;;;9.86;54.58
44349;BME280;30068;50.986;4.564;2022-12-18T07:28:34;102573.69;;;9.97;54.41
44349;BME280;30068;50.986;4.564;2022-12-18T07:31:05;102574.06;;;9.89;54.19
44349;BME280;30068;50.986;4.564;2022-12-18T07:33:32;102576.06;;;9.86;54.34
44349;BME280;30068;50.986;4.564;2022-12-18T07:36:05;102580.53;;;9.85;54.23
44349;BME280;30068;50.986;4.564;2022-12-18T07:38:33;102574.25;;;9.86;54.33
44349;BME280;30068;50.986;4.564;2022-12-18T07:41:06;102561.38;;;9.77;54.61
44349;BME280;30068;50.986;4.564;2022-12-18T07:43:32;102564.69;;;9.82;54.74
44349;BME280;30068;50.986;4.564;2022-12-18T07:45:58;102560.19;;;9.83;54.50
44349;BME280;30068;50.986;4.564;2022-12-18T07:48:23;102562.50;;;9.73;55.02
44349;BME280;30068;50.986;4.564;2022-12-18T07:50:48;102555.28;;;9.75;54.49
44349;BME280;30068;50.986;4.564;2022-12-18T07:53:14;102546.78;;;9.84;54.26
44349;BME280;30068;50.986;4.564;2022-12-18T07:55:40;102546.59;;;9.89;54.24
44349;BME280;30068;50.986;4.564;2022-12-18T07:58:07;102543.50;;;9.79;54.65
44349;BME280;30068;50.986;4.564;2022-12-18T08:00:32;102533.50;;;9.67;55.04
44349;BME280;30068;50.986;4.564;2022-12-18T08:02:58;102527.91;;;9.72;54.52
44349;BME280;30068;50.986;4.564;2022-12-18T08:05:23;102537.38;;;9.77;54.80
44349;BME280;30068;50.986;4.564;2022-12-18T08:07:49;102536.22;;;9.66;54.73
44349;BME280;30068;50.986;4.564;2022-12-18T08:10:14;102546.97;;;9.81;54.41
44349;BME280;30068;50.986;4.564;2022-12-18T08:12:39;102548.63;;;9.67;54.86
44349;BME280;30068;50.986;4.564;2022-12-18T08:15:05;102557.41;;;9.69;54.95
44349;BME280;30068;50.986;4.564;2022-12-18T08:17:31;102558.25;;;9.69;55.26
44349;BME280;30068;50.986;4.564;2022-12-18T08:19:56;102544.59;;;9.58;55.64
44349;BME280;30068;50.986;4.564;2022-12-18T08:22:22;102540.91;;;9.78;54.81
44349;BME280;30068;50.986;4.564;2022-12-18T08:24:47;102536.44;;;9.78;54.67
44349;BME280;30068;50.986;4.564;2022-12-18T08:27:12;102539.13;;;9.78;55.11
44349;BME280;30068;50.986;4.564;2022-12-18T08:29:38;102530.44;;;9.75;55.10
44349;BME280;30068;50.986;4.564;2022-12-18T08:32:03;102524.25;;;9.74;54.86
44349;BME280;30068;50.986;4.564;2022-12-18T08:34:29;102517.00;;;9.76;55.06
44349;BME280;30068;50.986;4.564;2022-12-18T08:36:54;102524.78;;;9.81;54.95
44349;BME280;30068;50.986;4.564;2022-12-18T08:39:19;102511.13;;;9.70;55.05
44349;BME280;30068;50.986;4.564;2022-12-18T08:41:44;102526.41;;;6.29;41.30
44349;BME280;30068;50.986;4.564;2022-12-18T08:44:30;102520.34;;;7.16;43.13
44349;BME280;30068;50.986;4.564;2022-12-18T08:47:08;102524.72;;;8.39;44.72
44349;BME280;30068;50.986;4.564;2022-12-18T08:49:34;102527.78;;;9.04;46.34
44349;BME280;30068;50.986;4.564;2022-12-18T08:51:59;102526.19;;;9.54;48.16
44349;BME280;30068;50.986;4.564;2022-12-18T08:54:25;102534.06;;;10.07;47.36
44349;BME280;30068;50.986;4.564;2022-12-18T08:56:51;102524.63;;;10.34;47.66
44349;BME280;30068;50.986;4.564;2022-12-18T08:59:17;102531.00;;;10.47;48.34
44349;BME280;30068;50.986;4.564;2022-12-18T09:01:43;102516.03;;;10.60;48.82
44349;BME280;30068;50.986;4.564;2022-12-18T09:04:09;102512.25;;;10.64;48.42
44349;BME280;30068;50.986;4.564;2022-12-18T09:06:35;102513.81;;;10.68;49.06
44349;BME280;30068;50.986;4.564;2022-12-18T09:09:00;102506.25;;;10.77;49.80
44349;BME280;30068;50.986;4.564;2022-12-18T09:11:28;102502.44;;;10.81;50.32
44349;BME280;30068;50.986;4.564;2022-12-18T09:13:54;102501.75;;;10.77;50.58
44349;BME280;30068;50.986;4.564;2022-12-18T09:16:20;102497.09;;;10.81;50.69
44349;BME280;30068;50.986;4.564;2022-12-18T09:18:46;102494.84;;;10.89;51.37
44349;BME280;30068;50.986;4.564;2022-12-18T09:21:14;102501.84;;;10.91;50.98
44349;BME280;30068;50.986;4.564;2022-12-18T09:23:40;102504.50;;;10.91;51.52
44349;BME280;30068;50.986;4.564;2022-12-18T09:26:06;102512.25;;;10.96;51.60
44349;BME280;30068;50.986;4.564;2022-12-18T09:28:32;102507.84;;;10.95;51.83
44349;BME280;30068;50.986;4.564;2022-12-18T09:30:57;102512.13;;;11.13;52.02
44349;BME280;30068;50.986;4.564;2022-12-18T09:33:22;102499.03;;;11.24;51.39
44349;BME280;30068;50.986;4.564;2022-12-18T09:35:48;102497.91;;;11.13;51.94
44349;BME280;30068;50.986;4.564;2022-12-18T09:38:18;102504.03;;;11.15;51.98
44349;BME280;30068;50.986;4.564;2022-12-18T09:40:46;102497.16;;;11.11;52.42
44349;BME280;30068;50.986;4.564;2022-12-18T09:43:37;102502.88;;;11.04;52.53
44349;BME280;30068;50.986;4.564;2022-12-18T09:46:11;102496.03;;;10.99;52.83
44349;BME280;30068;50.986;4.564;2022-12-18T09:48:42;102489.66;;;11.17;52.41
44349;BME280;30068;50.986;4.564;2022-12-18T09:51:16;102485.38;;;11.29;52.14
44349;BME280;30068;50.986;4.564;2022-12-18T09:54:07;102492.63;;;11.27;52.04
44349;BME280;30068;50.986;4.564;2022-12-18T09:56:35;102492.31;;;11.17;52.24
44349;BME280;30068;50.986;4.564;2022-12-18T09:59:03;102493.34;;;11.15;52.96
44349;BME280;30068;50.986;4.564;2022-12-18T10:01:30;102505.34;;;11.07;53.18
44349;BME280;30068;50.986;4.564;2022-12-18T10:03:56;102500.84;;;11.08;53.35
44349;BME280;30068;50.986;4.564;2022-12-18T10:06:33;102489.50;;;11.04;53.55
44349;BME280;30068;50.986;4.564;2022-12-18T10:11:52;102472.13;;;11.27;53.11
44349;BME280;30068;50.986;4.564;2022-12-18T10:14:28;102467.13;;;11.21;53.59
44349;BME280;30068;50.986;4.564;2022-12-18T10:19:47;102456.22;;;11.10;54.00
44349;BME280;30068;50.986;4.564;2022-12-18T10:22:47;102445.19;;;11.16;53.81
44349;BME280;30068;50.986;4.564;2022-12-18T10:28:14;102424.19;;;11.10;54.73
44349;BME280;30068;50.986;4.564;2022-12-18T10:30:42;102431.81;;;11.16;53.93
44349;BME280;30068;50.986;4.564;2022-12-18T10:33:12;102427.44;;;11.15;54.28
44349;BME280;30068;50.986;4.564;2022-12-18T10:35:40;102422.03;;;11.01;54.55
44349;BME280;30068;50.986;4.564;2022-12-18T10:43:20;102424.72;;;11.01;54.64
44349;BME280;30068;50.986;4.564;2022-12-18T10:51:08;102397.94;;;10.87;55.67
44349;BME280;30068;50.986;4.564;2022-12-18T10:53:36;102403.03;;;10.91;55.59
44349;BME280;30068;50.986;4.564;2022-12-18T10:56:03;102404.59;;;10.80;55.84
44349;BME280;30068;50.986;4.564;2022-12-18T10:58:34;102404.06;;;10.89;55.38
44349;BME280;30068;50.986;4.564;2022-12-18T11:01:14;102401.41;;;10.73;56.20
44349;BME280;30068;50.986;4.564;2022-12-18T11:04:07;102399.44;;;10.77;55.93
44349;BME280;30068;50.986;4.564;2022-12-18T11:06:30;102395.63;;;10.81;56.21
44349;BME280;30068;50.986;4.564;2022-12-18T11:11:27;102390.56;;;10.76;56.09
44349;BME280;30068;50.986;4.564;2022-12-18T11:14:25;102399.81;;;10.71;56.04
44349;BME280;30068;50.986;4.564;2022-12-18T11:16:52;102406.00;;;10.71;56.67
44349;BME280;30068;50.986;4.564;2022-12-18T11:21:49;102392.53;;;10.73;56.32
44349;BME280;30068;50.986;4.564;2022-12-18T11:24:22;102397.72;;;10.76;56.27
44349;BME280;30068;50.986;4.564;2022-12-18T11:26:51;102406.16;;;10.68;56.53
44349;BME280;30068;50.986;4.564;2022-12-18T11:29:20;102402.63;;;10.67;56.71
44349;BME280;30068;50.986;4.564;2022-12-18T11:31:48;102400.84;;;10.68;56.96
44349;BME280;30068;50.986;4.564;2022-12-18T11:34:24;102396.53;;;10.65;56.71
44349;BME280;30068;50.986;4.564;2022-12-18T11:36:53;102390.16;;;10.68;57.00
44349;BME280;30068;50.986;4.564;2022-12-18T11:41:55;102382.13;;;10.84;56.04
44349;BME280;30068;50.986;4.564;2022-12-18T11:44:50;102386.53;;;10.85;56.02
44349;BME280;30068;50.986;4.564;2022-12-18T11:47:27;102385.78;;;10.97;55.84
44349;BME280;30068;50.986;4.564;2022-12-18T11:49:56;102383.06;;;10.83;56.50
44349;BME280;30068;50.986;4.564;2022-12-18T11:52:28;102387.53;;;10.82;56.19
44349;BME280;30068;50.986;4.564;2022-12-18T11:55:00;102382.56;;;10.76;56.60
44349;BME280;30068;50.986;4.564;2022-12-18T11:57:45;102382.13;;;10.84;56.63
44349;BME280;30068;50.986;4.564;2022-12-18T12:00:18;102374.69;;;10.89;56.64
44349;BME280;30068;50.986;4.564;2022-12-18T12:05:57;102373.38;;;10.96;56.00
44349;BME280;30068;50.986;4.564;2022-12-18T12:11:15;102354.97;;;11.05;56.05
44349;BME280;30068;50.986;4.564;2022-12-18T12:13:55;102353.09;;;11.07;56.33
44349;BME280;30068;50.986;4.564;2022-12-18T12:16:37;102350.25;;;11.11;56.05
44349;BME280;30068;50.986;4.564;2022-12-18T12:22:07;102339.47;;;11.12;56.37
44349;BME280;30068;50.986;4.564;2022-12-18T12:30:25;102331.56;;;11.25;56.26
44349;BME280;30068;50.986;4.564;2022-12-18T12:35:42;102330.09;;;11.19;56.60
44349;BME280;30068;50.986;4.564;2022-12-18T12:40:39;102333.28;;;11.26;56.76
44349;BME280;30068;50.986;4.564;2022-12-18T12:43:21;102323.25;;;11.29;56.74
44349;BME280;30068;50.986;4.564;2022-12-18T12:45:53;102323.63;;;11.23;56.69
44349;BME280;30068;50.986;4.564;2022-12-18T12:51:16;102329.56;;;11.42;56.46
44349;BME280;30068;50.986;4.564;2022-12-18T12:53:42;102322.31;;;11.44;56.04
44349;BME280;30068;50.986;4.564;2022-12-18T12:56:10;102320.22;;;11.35;56.42
44349;BME280;30068;50.986;4.564;2022-12-18T12:58:46;102304.38;;;11.32;56.39
44349;BME280;30068;50.986;4.564;2022-12-18T13:03:58;102308.56;;;11.36;56.48
44349;BME280;30068;50.986;4.564;2022-12-18T13:06:50;102309.50;;;11.35;56.94
44349;BME280;30068;50.986;4.564;2022-12-18T13:09:19;102293.31;;;11.38;57.02
44349;BME280;30068;50.986;4.564;2022-12-18T13:11:46;102298.66;;;11.53;56.18
44349;BME280;30068;50.986;4.564;2022-12-18T13:14:36;102303.31;;;11.49;56.64
44349;BME280;30068;50.986;4.564;2022-12-18T13:19:50;102310.69;;;11.45;56.62
44349;BME280;30068;50.986;4.564;2022-12-18T13:22:25;102301.50;;;11.49;56.61
44349;BME280;30068;50.986;4.564;2022-12-18T13:24:53;102291.84;;;11.47;56.95
44349;BME280;30068;50.986;4.564;2022-12-18T13:45:59;102266.28;;;11.29;55.19
44349;BME280;30068;50.986;4.564;2022-12-18T13:48:27;102263.31;;;11.33;55.29
44349;BME280;30068;50.986;4.564;2022-12-18T13:50:57;102264.13;;;9.39;50.10
44349;BME280;30068;50.986;4.564;2022-12-18T13:53:30;102275.19;;;8.47;52.90
44349;BME280;30068;50.986;4.564;2022-12-18T13:55:58;102264.72;;;10.07;51.52
44349;BME280;30068;50.986;4.564;2022-12-18T13:58:23;102254.69;;;10.72;51.13
44349;BME280;30068;50.986;4.564;2022-12-18T14:00:48;102257.00;;;11.06;51.92
44349;BME280;30068;50.986;4.564;2022-12-18T14:03:20;102258.34;;;11.27;53.08
44349;BME280;30068;50.986;4.564;2022-12-18T14:05:52;102268.25;;;11.54;52.83
44349;BME280;30068;50.986;4.564;2022-12-18T14:08:18;102275.53;;;11.80;52.89
44349;BME280;30068;50.986;4.564;2022-12-18T14:10:46;102272.59;;;11.97;53.21
44349;BME280;30068;50.986;4.564;2022-12-18T14:13:19;102276.00;;;12.13;52.82
44349;BME280;30068;50.986;4.564;2022-12-18T14:15:47;102278.06;;;12.22;53.17
44349;BME280;30068;50.986;4.564;2022-12-18T14:20:59;102276.59;;;12.31;53.25
44349;BME280;30068;50.986;4.564;2022-12-18T14:23:37;102272.13;;;12.44;52.66
44349;BME280;30068;50.986;4.564;2022-12-18T14:26:25;102280.72;;;12.49;52.99
44349;BME280;30068;50.986;4.564;2022-12-18T14:28:53;102281.38;;;12.53;53.38
44349;BME280;30068;50.986;4.564;2022-12-18T14:31:21;102279.25;;;12.58;53.10
44349;BME280;30068;50.986;4.564;2022-12-18T14:33:47;102264.28;;;12.68;53.20
44349;BME280;30068;50.986;4.564;2022-12-18T14:36:18;102271.34;;;12.69;53.38